Time;durP1;ratioP1;P1;durP2;ratioP2;P2;SDS_P1;SDS_P2;PMS_P1;PMS_P2;Temp;Humidity;BMP_temperature;BMP_pressure;BME280_temperature;BME280_humidity;BME280_pressure;Samples;Min_cycle;Max_cycle;Signal;HPM_P1;HPM_P2
2022/01/31 00:01:34;;;;;;;11.40;3.00;;;;;;;0.75;73.68;98649.54;439522;1271;141585;-67
2022/01/31 00:11:43;;;;;;;8.60;2.50;;;;;;;0.69;73.71;98664.91;446294;1271;141852;-66
2022/01/31 00:21:49;;;;;;;8.70;2.30;;;;;;;0.65;73.93;98685.89;446735;1271;142881;-65
2022/01/31 00:31:55;;;;;;;8.50;2.90;;;;;;;0.61;73.88;98685.72;446491;1271;142802;-67
2022/01/31 00:42:04;;;;;;;6.90;2.30;;;;;;;0.54;74.15;98684.41;447206;1270;193317;-64
2022/01/31 00:52:10;;;;;;;8.20;2.50;;;;;;;0.48;74.05;98679.98;447464;1271;141413;-64
2022/01/31 01:02:15;;;;;;;10.10;3.40;;;;;;;0.44;74.32;98678.08;438570;1273;142037;-65
2022/01/31 01:12:22;;;;;;;8.60;2.30;;;;;;;0.36;74.32;98684.05;439010;1270;143595;-65
2022/01/31 01:22:28;;;;;;;8.40;3.00;;;;;;;0.23;74.64;98678.83;430652;1271;141527;-62
2022/01/31 01:32:44;;;;;;;11.10;3.40;;;;;;;0.10;74.64;98677.05;446168;1271;141753;-60
2022/01/31 01:42:50;;;;;;;8.70;2.00;;;;;;;-0.12;74.88;98659.78;447215;1271;195660;-60
2022/01/31 01:52:56;;;;;;;10.50;2.80;;;;;;;-0.29;75.24;98644.52;446004;1272;142317;-60
2022/01/31 02:03:02;;;;;;;13.90;2.50;;;;;;;-0.43;75.09;98640.02;447405;1271;143172;-59
2022/01/31 02:13:09;;;;;;;9.40;2.50;;;;;;;-0.70;75.40;98625.60;445395;1271;142562;-60
2022/01/31 02:23:17;;;;;;;8.70;3.40;;;;;;;-0.97;75.92;98635.43;429742;1271;142702;-58
2022/01/31 02:33:24;;;;;;;9.20;2.70;;;;;;;-1.18;76.49;98645.53;443183;1270;142730;-59
2022/01/31 02:43:32;;;;;;;13.30;3.40;;;;;;;-1.19;76.92;98634.91;447418;1269;142009;-61
2022/01/31 02:53:41;;;;;;;9.50;3.20;;;;;;;-1.14;77.12;98644.38;446618;1269;142429;-59
2022/01/31 03:03:47;;;;;;;15.20;4.40;;;;;;;-0.98;77.33;98646.78;447349;1271;141910;-59
2022/01/31 03:13:53;;;;;;;15.70;4.30;;;;;;;-0.83;77.48;98645.79;446606;1270;152998;-59
2022/01/31 03:23:58;;;;;;;14.90;5.50;;;;;;;-0.72;77.56;98640.43;446966;1272;141830;-60
2022/01/31 03:34:05;;;;;;;13.40;3.20;;;;;;;-0.68;77.40;98619.89;437995;1271;143770;-60
2022/01/31 03:44:10;;;;;;;9.20;2.50;;;;;;;-0.74;77.40;98610.27;441652;1270;143168;-61
2022/01/31 03:54:17;;;;;;;10.10;3.30;;;;;;;-0.87;77.40;98599.53;437441;1273;142783;-60
2022/01/31 04:04:23;;;;;;;7.80;3.40;;;;;;;-1.04;77.52;98594.45;446964;1272;144025;-60
2022/01/31 04:14:28;;;;;;;8.20;2.70;;;;;;;-1.00;77.60;98589.48;446196;1272;141790;-59
2022/01/31 04:24:35;;;;;;;10.80;3.10;;;;;;;-0.95;77.66;98581.24;447269;1271;141681;-60
2022/01/31 04:34:41;;;;;;;9.30;3.00;;;;;;;-1.00;77.93;98571.11;447335;1271;143598;-59
2022/01/31 04:44:48;;;;;;;9.80;3.20;;;;;;;-1.13;77.62;98559.66;446586;1270;141614;-61
2022/01/31 04:54:55;;;;;;;11.70;3.30;;;;;;;-1.19;77.83;98536.50;446997;1271;142375;-59
2022/01/31 05:05:01;;;;;;;15.20;3.10;;;;;;;-1.27;78.26;98524.39;438211;1272;143577;-59
2022/01/31 05:15:08;;;;;;;10.00;3.00;;;;;;;-1.35;78.29;98513.85;432260;1271;142476;-59
2022/01/31 05:25:12;;;;;;;;;;;;;;;-1.37;78.47;98502.73;447378;1270;142054;-60
2022/01/31 05:35:18;;;;;;;7.70;2.90;;;;;;;-1.22;78.80;98488.00;433525;1271;129054;-59
2022/01/31 05:45:24;;;;;;;10.40;3.80;;;;;;;-1.12;78.65;98474.08;435469;1271;143390;-59
2022/01/31 05:55:30;;;;;;;13.00;3.30;;;;;;;-1.07;78.43;98463.95;435541;1271;143353;-60
2022/01/31 06:05:36;;;;;;;12.60;3.80;;;;;;;-1.05;78.64;98460.47;443399;1268;142110;-59
2022/01/31 06:15:41;;;;;;;11.30;4.60;;;;;;;-1.03;78.29;98457.13;447340;1271;142455;-60
2022/01/31 06:25:48;;;;;;;20.30;5.80;;;;;;;-1.03;78.36;98453.67;447376;1270;142491;-60
2022/01/31 06:35:54;;;;;;;13.00;4.10;;;;;;;-1.04;78.44;98457.01;438589;1271;141335;-58
2022/01/31 06:46:00;;;;;;;15.30;4.50;;;;;;;-1.09;78.42;98458.37;434368;1270;146006;-59
2022/01/31 06:56:06;;;;;;;15.30;5.30;;;;;;;-0.99;78.59;98451.33;445831;1272;143544;-58
2022/01/31 07:06:12;;;;;;;17.80;4.40;;;;;;;-0.83;78.50;98431.17;440125;1271;142331;-59
2022/01/31 07:16:18;;;;;;;10.10;3.50;;;;;;;-0.69;78.08;98425.34;447298;1270;141411;-59
2022/01/31 07:26:24;;;;;;;19.00;4.00;;;;;;;-0.57;78.09;98419.38;446327;1272;142266;-59
2022/01/31 07:36:30;;;;;;;12.70;4.50;;;;;;;-0.40;77.84;98408.27;446845;1273;142071;-60
2022/01/31 07:46:35;;;;;;;16.00;5.00;;;;;;;-0.19;77.56;98398.52;444826;1271;141723;-60
2022/01/31 07:56:41;;;;;;;12.80;5.10;;;;;;;0.01;77.30;98403.28;436734;1271;143625;-59
2022/01/31 08:06:47;;;;;;;13.10;5.20;;;;;;;0.11;77.04;98396.52;438403;1270;142567;-69
2022/01/31 08:16:53;;;;;;;12.40;3.70;;;;;;;0.19;76.96;98383.27;446306;1270;141717;-68
2022/01/31 08:26:59;;;;;;;15.40;4.50;;;;;;;0.34;76.69;98369.56;434931;1270;141974;-69
2022/01/31 08:37:05;;;;;;;13.80;4.70;;;;;;;0.47;76.54;98358.91;441433;1270;142167;-66
2022/01/31 08:47:12;;;;;;;15.50;5.30;;;;;;;0.67;76.16;98340.65;433900;1271;163370;-61
2022/01/31 08:57:18;;;;;;;19.00;5.80;;;;;;;0.87;75.86;98334.27;431599;1270;141073;-66
2022/01/31 09:07:25;;;;;;;20.30;6.40;;;;;;;0.91;75.55;98333.90;439738;1270;142203;-65
2022/01/31 09:17:31;;;;;;;17.40;5.60;;;;;;;0.90;75.46;98325.88;446632;1271;142816;-73
2022/01/31 09:27:37;;;;;;;18.30;6.10;;;;;;;1.02;75.47;98317.40;446844;1270;143652;-75
2022/01/31 09:37:43;;;;;;;12.40;5.60;;;;;;;1.23;75.11;98297.66;445432;1270;141705;-67
2022/01/31 09:58:13;;;;;;;14.70;4.90;;;;;;;1.70;74.66;98263.36;447233;1270;142250;-61
2022/01/31 10:08:19;;;;;;;14.50;6.60;;;;;;;2.14;74.16;98248.60;437921;1270;142936;-62
2022/01/31 10:18:25;;;;;;;18.10;5.50;;;;;;;2.33;73.60;98231.75;442531;1270;142565;-60
2022/01/31 10:28:46;;;;;;;19.00;5.60;;;;;;;2.02;72.97;98230.73;443697;1270;143103;-63
2022/01/31 10:39:13;;;;;;;12.70;5.50;;;;;;;1.66;73.09;98226.13;430433;1271;198935;-63
2022/01/31 11:00:01;;;;;;;11.40;4.10;;;;;;;1.58;73.66;98213.56;436508;1270;138229;-66
2022/01/31 11:10:08;;;;;;;11.70;4.70;;;;;;;1.79;73.35;98199.59;436453;1270;142294;-59
2022/01/31 11:20:14;;;;;;;10.60;5.10;;;;;;;1.98;73.30;98193.14;446118;1271;142486;-68
2022/01/31 11:30:23;;;;;;;14.80;5.60;;;;;;;2.28;73.05;98192.25;437991;1271;145614;-70
2022/01/31 11:40:29;;;;;;;17.30;5.80;;;;;;;2.45;72.40;98183.98;447350;1271;141555;-65
2022/01/31 11:50:45;;;;;;;13.20;3.90;;;;;;;2.31;72.22;98186.42;445668;1270;142018;-63
2022/01/31 12:00:53;;;;;;;8.20;2.90;;;;;;;2.25;70.97;98176.56;440230;1270;142110;-69
2022/01/31 12:11:09;;;;;;;12.20;3.70;;;;;;;2.02;70.88;98168.91;446551;1270;141717;-69
2022/01/31 12:31:44;;;;;;;18.10;5.30;;;;;;;2.11;71.59;98159.15;443681;1271;141690;-65
2022/01/31 12:41:58;;;;;;;12.60;4.70;;;;;;;2.25;71.55;98143.91;438827;1270;142191;-68
2022/01/31 12:52:07;;;;;;;16.40;5.10;;;;;;;2.27;71.20;98134.00;431250;1271;141987;-73
2022/01/31 13:02:13;;;;;;;21.50;6.50;;;;;;;2.20;71.04;98127.75;430908;1271;142238;-73
2022/01/31 13:12:22;;;;;;;9.70;5.10;;;;;;;2.12;71.04;98136.30;440824;1271;142728;-67
2022/01/31 13:22:33;;;;;;;14.90;4.60;;;;;;;2.06;70.99;98136.27;437859;1271;142046;-63
2022/01/31 13:32:41;;;;;;;12.90;5.60;;;;;;;1.96;70.60;98137.14;441900;1271;142361;-63
2022/01/31 13:43:11;;;;;;;12.50;5.30;;;;;;;1.81;70.85;98134.61;434906;1261;143206;-64
2022/01/31 13:53:18;;;;;;;13.50;5.40;;;;;;;1.87;71.24;98146.89;431466;1260;141130;-65
2022/01/31 14:03:25;;;;;;;13.10;5.40;;;;;;;1.99;71.34;98146.66;440621;1270;143101;-65
2022/01/31 14:13:33;;;;;;;16.60;7.00;;;;;;;1.94;71.27;98156.72;447167;1272;142343;-63
2022/01/31 14:23:39;;;;;;;;;;;;;;;1.79;71.17;98145.59;444034;1271;143615;-60
2022/01/31 14:33:48;;;;;;;17.10;6.80;;;;;;;1.52;71.41;98141.58;433544;1271;127878;-60
2022/01/31 14:54:19;;;;;;;15.80;6.20;;;;;;;1.21;72.14;98150.52;444477;1270;142164;-59
2022/01/31 15:04:26;;;;;;;13.60;5.90;;;;;;;1.11;72.54;98157.89;445793;1271;142259;-59
2022/01/31 15:14:30;;;;;;;;;;;;;;;1.05;72.70;98152.00;444062;1269;142897;-58
2022/01/31 15:24:37;;;;;;;12.50;5.80;;;;;;;0.98;72.83;98157.98;440967;1271;128606;-60
2022/01/31 15:34:43;;;;;;;13.20;5.20;;;;;;;0.88;72.68;98163.48;429959;1271;143578;-59
2022/01/31 15:44:54;;;;;;;23.20;7.50;;;;;;;0.77;72.62;98171.21;431420;1271;142203;-61
2022/01/31 15:55:00;;;;;;;15.20;7.20;;;;;;;0.69;72.96;98165.89;447304;1271;142322;-63
2022/01/31 16:05:15;;;;;;;11.80;6.00;;;;;;;0.66;73.00;98169.11;446201;1271;144255;-63
2022/01/31 16:15:22;;;;;;;19.00;7.80;;;;;;;0.65;73.21;98175.73;439805;1271;144078;-62
2022/01/31 16:25:28;;;;;;;14.00;8.40;;;;;;;0.63;73.45;98169.98;441524;1271;142594;-71
2022/01/31 16:35:34;;;;;;;22.10;10.50;;;;;;;0.55;73.70;98180.29;446662;1271;142417;-65
2022/01/31 16:45:41;;;;;;;20.50;9.10;;;;;;;0.50;74.12;98195.19;447441;1271;142797;-63
2022/01/31 16:55:49;;;;;;;21.50;9.80;;;;;;;0.46;73.96;98196.40;447363;1271;146972;-64
2022/01/31 17:05:55;;;;;;;26.40;10.50;;;;;;;0.39;74.31;98205.31;430605;1271;141000;-61
2022/01/31 17:16:01;;;;;;;20.50;9.50;;;;;;;0.17;74.60;98209.86;430838;1271;200716;-63
2022/01/31 17:26:07;;;;;;;21.60;9.90;;;;;;;-0.16;74.86;98210.05;438759;1271;142819;-62
2022/01/31 17:36:14;;;;;;;22.80;10.80;;;;;;;-0.36;75.37;98220.49;447369;1271;142581;-64
2022/01/31 17:46:21;;;;;;;22.00;11.20;;;;;;;-0.45;75.52;98225.86;433320;1271;142225;-63
2022/01/31 17:56:27;;;;;;;22.60;14.20;;;;;;;-0.53;76.01;98233.09;434816;1271;142109;-62
2022/01/31 18:06:32;;;;;;;26.70;13.90;;;;;;;-0.63;76.37;98243.61;433688;1269;142045;-63
2022/01/31 18:16:38;;;;;;;35.60;17.50;;;;;;;-0.61;76.45;98264.15;439317;1271;142323;-62
2022/01/31 18:26:44;;;;;;;33.40;18.60;;;;;;;-0.52;76.48;98271.73;439637;1271;143018;-63
2022/01/31 18:36:51;;;;;;;25.60;13.60;;;;;;;-0.56;76.53;98288.89;436333;1271;142159;-62
2022/01/31 18:46:58;;;;;;;28.30;16.80;;;;;;;-0.70;76.29;98295.79;439293;1272;143563;-63
2022/01/31 18:57:05;;;;;;;27.60;13.70;;;;;;;-0.84;76.23;98300.08;446854;1271;143418;-64
2022/01/31 19:07:11;;;;;;;19.60;10.60;;;;;;;-0.93;76.51;98315.04;446882;1271;143089;-63
2022/01/31 19:17:18;;;;;;;26.10;15.30;;;;;;;-1.03;76.52;98329.15;438877;1272;143547;-61
2022/01/31 19:27:24;;;;;;;29.50;15.20;;;;;;;-1.20;76.65;98333.88;434248;1271;142185;-64
2022/01/31 19:37:30;;;;;;;22.60;13.30;;;;;;;-1.43;76.81;98340.16;440318;1271;141811;-60
2022/01/31 19:47:36;;;;;;;26.90;14.80;;;;;;;-1.65;76.97;98354.50;437041;1270;142845;-62
2022/01/31 19:57:42;;;;;;;26.00;14.90;;;;;;;-1.80;77.21;98369.75;437285;1271;143205;-61
2022/01/31 20:07:47;;;;;;;24.60;14.20;;;;;;;-1.99;77.36;98379.13;443797;1271;142930;-58
2022/01/31 20:17:53;;;;;;;41.40;17.60;;;;;;;-2.26;77.74;98389.05;437213;1271;142757;-60
2022/01/31 20:28:00;;;;;;;31.80;17.20;;;;;;;-2.44;78.16;98400.05;441032;1270;141614;-60
2022/01/31 20:38:10;;;;;;;29.10;16.40;;;;;;;-2.62;78.49;98408.77;446615;1270;143542;-60
2022/01/31 20:48:16;;;;;;;27.30;16.70;;;;;;;-2.81;78.79;98419.45;447461;1270;142412;-60
2022/01/31 20:58:22;;;;;;;28.10;17.20;;;;;;;-2.98;78.85;98439.60;447378;1270;142090;-61
2022/01/31 21:08:30;;;;;;;38.10;18.90;;;;;;;-3.12;79.24;98443.39;441330;1271;141995;-61
2022/01/31 21:18:36;;;;;;;30.80;19.20;;;;;;;-3.30;79.45;98444.56;435332;1271;142620;-62
2022/01/31 21:28:42;;;;;;;31.40;18.70;;;;;;;-3.55;79.63;98453.23;430078;1271;143622;-59
2022/01/31 21:38:49;;;;;;;33.70;19.10;;;;;;;-3.79;80.15;98452.93;446557;1270;142684;-61
2022/01/31 21:48:56;;;;;;;42.00;19.10;;;;;;;-3.84;80.76;98455.81;447371;1270;143051;-60
2022/01/31 21:59:01;;;;;;;24.90;14.00;;;;;;;-3.71;81.23;98460.78;435067;1268;143632;-59
2022/01/31 22:09:16;;;;;;;38.10;20.30;;;;;;;-3.79;81.55;98460.64;441921;1271;142354;-60
2022/01/31 22:19:22;;;;;;;36.10;20.40;;;;;;;-3.87;81.60;98478.95;447181;1271;143456;-60
2022/01/31 22:29:27;;;;;;;40.40;22.30;;;;;;;-3.97;81.81;98490.80;446608;1270;142992;-61
2022/01/31 22:39:34;;;;;;;43.50;22.00;;;;;;;-4.02;82.02;98495.89;447261;1271;244573;-61
2022/01/31 22:49:39;;;;;;;45.60;25.50;;;;;;;-4.12;82.23;98491.29;447365;1271;143212;-61
2022/01/31 22:59:45;;;;;;;43.30;23.90;;;;;;;-4.34;82.18;98504.73;443313;1269;142114;-60
2022/01/31 23:09:51;;;;;;;42.40;24.20;;;;;;;-4.52;82.32;98506.83;440185;1271;143136;-60
2022/01/31 23:20:05;;;;;;;41.90;22.70;;;;;;;-4.75;82.53;98511.20;429088;1273;142825;-61
2022/01/31 23:51:30;;;;;;;36.70;18.70;;;;;;;-5.40;82.80;98520.34;444035;1271;143459;-60
